Terminal Aerodrome Forecast
Issued by NWS Amarillo, TX

Home | Current Version | Previous Version | Text Only | Print | Product List | Glossary On
Versions: 1 2 3 4 5 6 7 8 9 10 11 12 13 14 15 16 17 18 19 20 21 22 23 24 25 26 27 28
000
FTUS44 KAMA 302300
TAFAMA
TAF
KAMA 302320Z 3100/3124 02010KT 6SM BR SCT020 BKN030
     FM310500 01010KT P6SM OVC020
     FM311400 02010KT P6SM BKN100
     FM311800 01010G15KT P6SM BKN100=

USA.gov is the U.S. government's official web portal to all federal, state and local government web resources and services.